TimeEST,TemperatureF,Dew PointF,Humidity,Sea Level PressureIn,VisibilityMPH,Wind Direction,Wind SpeedMPH,Gust SpeedMPH,PrecipitationIn,Events,Conditions,WindDirDegrees,DateUTC
12:53 AM,57.0,51.1,81,30.31,10.0,NE,5.8,-,N/A,,Scattered Clouds,50,2012-01-17 05:53:00
1:53 AM,55.0,50.0,83,30.30,10.0,ENE,3.5,-,N/A,,Partly Cloudy,70,2012-01-17 06:53:00
2:53 AM,55.0,50.0,83,30.28,10.0,Calm,Calm,-,N/A,,Clear,0,2012-01-17 07:53:00
3:53 AM,54.0,50.0,86,30.27,10.0,Calm,Calm,-,N/A,,Clear,0,2012-01-17 08:53:00
4:53 AM,53.1,50.0,89,30.27,10.0,NE,3.5,-,N/A,,Clear,50,2012-01-17 09:53:00
5:53 AM,53.1,50.0,89,30.27,10.0,ENE,3.5,-,N/A,,Clear,70,2012-01-17 10:53:00
6:53 AM,52.0,48.9,89,30.27,10.0,ENE,3.5,-,N/A,,Clear,60,2012-01-17 11:53:00
7:53 AM,54.0,51.1,90,30.28,8.0,ENE,3.5,-,N/A,,Clear,70,2012-01-17 12:53:00
8:53 AM,61.0,53.1,75,30.30,10.0,East,5.8,-,N/A,,Clear,80,2012-01-17 13:53:00
9:53 AM,68.0,55.0,63,30.30,10.0,ESE,5.8,-,N/A,,Clear,110,2012-01-17 14:53:00
10:53 AM,73.0,54.0,51,30.29,10.0,SE,10.4,19.6,N/A,,Clear,140,2012-01-17 15:53:00
11:53 AM,73.9,54.0,50,30.27,10.0,SE,15.0,-,N/A,,Partly Cloudy,130,2012-01-17 16:53:00
12:53 PM,75.9,54.0,46,30.23,10.0,SE,9.2,-,N/A,,Scattered Clouds,130,2012-01-17 17:53:00
1:53 PM,75.9,54.0,46,30.19,10.0,SSW,11.5,-,N/A,,Clear,210,2012-01-17 18:53:00
2:53 PM,75.9,55.9,50,30.17,10.0,SW,12.7,-,N/A,,Partly Cloudy,220,2012-01-17 19:53:00
3:53 PM,75.0,57.0,53,30.17,10.0,SSW,11.5,-,N/A,,Partly Cloudy,210,2012-01-17 20:53:00
4:53 PM,73.0,57.0,57,30.17,10.0,SW,6.9,-,N/A,,Partly Cloudy,230,2012-01-17 21:53:00
5:53 PM,70.0,57.9,65,30.18,10.0,Calm,Calm,-,N/A,,Partly Cloudy,0,2012-01-17 22:53:00
6:53 PM,68.0,57.2,68,30.20,10.0,North,4.6,-,N/A,,Partly Cloudy,350,2012-01-17 23:53:00
7:53 PM,66.0,57.9,75,30.19,10.0,Calm,Calm,-,N/A,,Partly Cloudy,0,2012-01-18 00:53:00
8:53 PM,64.0,57.0,78,30.19,10.0,Calm,Calm,-,N/A,,Clear,0,2012-01-18 01:53:00
9:53 PM,62.1,57.0,84,30.19,10.0,Calm,Calm,-,N/A,,Partly Cloudy,0,2012-01-18 02:53:00
10:53 PM,61.0,57.0,87,30.19,10.0,Calm,Calm,-,N/A,,Partly Cloudy,0,2012-01-18 03:53:00
11:53 PM,60.1,55.9,86,30.18,10.0,Calm,Calm,-,N/A,,Clear,0,2012-01-18 04:53:00